Princeton, Michigan
Current Conditions -  °F | °C
As of 4:55 PM on Thursday 27 Nov 2014 (Local Time) from KSAW Reporting Station
Clear Clear  
Wind Chill:   Ceiling: Unl
Heat Index: 10°   Visibility: 10mi
Dew Point:   Wind: 7mph
Humidity: 62%   Direction: 320°NW
Pressure: 30.29"   Gusts: NA
Location:  46.2832°N, 87.4701°W
Report Text: KSAW 272155Z 32006KT 10SM SKC M12/M18 A3029
Loading
Personal Weather Stations






























Interactive Weather Map New forecast layout! Learn more

10-Day Weather Forecast

Advertisements
Track Severe Weather on mobile